Terminal Aerodrome Forecast
Issued by NWS Melbourne, FL

Home | Current Version | Previous Version | Text Only | Print | Product List | Glossary On
Versions: 1 2 3 4 5 6 7 8 9 10 11 12 13 14 15 16 17 18 19 20 21
134
FTUS42 KMLB 281425 AAD
TAFMLB
TAF AMD
KMLB 281425Z 2814/2912 03010KT P6SM SCT010 SCT020
      TEMPO 2814/2816 5SM SHRA BKN020
     FM281600 05011KT P6SM VCTS SCT020CB SCT250
      TEMPO 2818/2820 5SM TSRA BKN025CB
     FM282200 07009KT P6SM SCT035 BKN250
     FM290300 07003KT P6SM FEW025 SCT120=

USA.gov is the U.S. government's official web portal to all federal, state and local government web resources and services.